createdAt,value
2022-09-21T00:01:29.316Z,0.50
2022-09-21T00:04:02.216Z,0.50
2022-09-21T00:06:34.258Z,0.85
2022-09-21T00:11:33.930Z,1.23
2022-09-21T00:14:07.346Z,0.88
2022-09-21T00:16:35.292Z,0.90
2022-09-21T00:19:02.729Z,0.82
2022-09-21T00:21:30.493Z,1.00
2022-09-21T00:23:59.622Z,1.20
2022-09-21T00:26:27.685Z,0.77
2022-09-21T00:28:57.747Z,1.02
2022-09-21T00:31:26.442Z,0.93
2022-09-21T00:33:54.213Z,0.90
2022-09-21T00:36:23.956Z,0.60
2022-09-21T00:39:01.082Z,0.85
2022-09-21T00:41:30.389Z,0.50
2022-09-21T00:44:16.103Z,0.60
2022-09-21T00:46:45.292Z,0.80
2022-09-21T00:49:13.567Z,0.80
2022-09-21T00:51:42.279Z,0.73
2022-09-21T00:54:16.544Z,0.77
2022-09-21T00:56:44.973Z,0.60
2022-09-21T00:59:13.841Z,0.88
2022-09-21T01:01:43.148Z,1.13
2022-09-21T01:04:13.750Z,1.52
2022-09-21T01:06:41.654Z,3.20
2022-09-21T01:09:09.492Z,1.48
2022-09-21T01:11:59.391Z,0.90
2022-09-21T01:14:37.055Z,1.33
2022-09-21T01:17:04.388Z,1.65
2022-09-21T01:20:15.243Z,0.93
2022-09-21T01:23:10.785Z,0.90
2022-09-21T01:26:00.191Z,1.13
2022-09-21T01:28:34.201Z,1.30
2022-09-21T01:31:06.407Z,1.45
2022-09-21T01:33:39.648Z,1.13
2022-09-21T01:36:12.225Z,1.13
2022-09-21T01:38:45.941Z,0.90
2022-09-21T01:41:16.501Z,1.25
2022-09-21T01:43:53.241Z,0.98
2022-09-21T01:46:25.467Z,1.15
2022-09-21T01:48:56.707Z,5.25
2022-09-21T01:51:28.465Z,1.23
2022-09-21T01:54:01.900Z,0.80
2022-09-21T01:57:01.103Z,0.90
2022-09-21T01:59:43.217Z,1.00
2022-09-21T02:04:41.267Z,0.80
2022-09-21T02:07:08.551Z,0.85
2022-09-21T02:09:37.403Z,0.70
2022-09-21T02:12:05.650Z,1.20
2022-09-21T02:14:34.541Z,1.55
2022-09-21T02:17:11.322Z,1.10
2022-09-21T02:19:46.378Z,1.30
2022-09-21T02:22:46.307Z,1.30
2022-09-21T02:25:20.954Z,1.02
2022-09-21T02:28:01.693Z,1.42
2022-09-21T02:30:31.466Z,0.80
2022-09-21T02:33:25.041Z,0.80
2022-09-21T02:36:28.443Z,7.38
2022-09-21T02:39:02.969Z,0.98
2022-09-21T02:41:45.723Z,1.02
2022-09-21T02:44:32.665Z,1.10
2022-09-21T02:47:23.521Z,1.05
2022-09-21T02:49:56.753Z,1.10
2022-09-21T02:52:26.509Z,1.08
2022-09-21T02:54:55.773Z,0.98
2022-09-21T02:57:24.251Z,1.02
2022-09-21T02:59:52.672Z,0.95
2022-09-21T03:02:20.178Z,8.30
2022-09-21T03:04:48.735Z,2.25
2022-09-21T03:07:17.321Z,1.13
2022-09-21T03:09:44.958Z,0.90
2022-09-21T03:12:12.196Z,1.17
2022-09-21T03:14:39.673Z,1.13
2022-09-21T03:17:06.827Z,0.75
2022-09-21T03:19:33.999Z,1.20
2022-09-21T03:22:01.415Z,0.85
2022-09-21T03:24:46.823Z,1.33
2022-09-21T03:27:19.477Z,1.20
2022-09-21T03:29:47.209Z,1.17
2022-09-21T03:32:14.791Z,0.95
2022-09-21T03:34:42.394Z,1.13
2022-09-21T03:37:10.708Z,0.75
2022-09-21T03:39:37.970Z,0.80
2022-09-21T03:42:05.596Z,0.43
2022-09-21T03:44:32.911Z,0.40
2022-09-21T03:47:00.368Z,0.40
2022-09-21T03:49:27.750Z,0.80
2022-09-21T03:51:56.130Z,0.30
2022-09-21T03:54:23.350Z,0.30
2022-09-21T03:56:50.686Z,0.43
2022-09-21T03:59:18.188Z,0.30
2022-09-21T04:01:45.378Z,0.30
2022-09-21T04:04:12.816Z,0.50
2022-09-21T04:06:41.303Z,0.28
2022-09-21T04:09:08.606Z,0.40
2022-09-21T04:11:35.964Z,0.40
2022-09-21T04:14:03.156Z,0.40
2022-09-21T04:16:31.226Z,0.30
2022-09-21T04:18:58.688Z,0.60
2022-09-21T04:21:25.823Z,0.50
2022-09-21T04:23:53.044Z,0.30
2022-09-21T04:26:21.404Z,0.60
2022-09-21T04:28:48.989Z,0.75
2022-09-21T04:31:16.429Z,0.40
2022-09-21T04:33:44.098Z,0.63
2022-09-21T04:36:11.240Z,0.63
2022-09-21T04:38:38.443Z,0.50
2022-09-21T04:41:06.172Z,0.50
2022-09-21T04:43:33.500Z,0.60
2022-09-21T04:46:06.472Z,0.40
2022-09-21T04:48:33.960Z,1.02
2022-09-21T04:51:01.976Z,0.57
2022-09-21T04:53:30.794Z,0.15
2022-09-21T04:55:58.238Z,0.20
2022-09-21T04:58:25.472Z,0.32
2022-09-21T05:00:53.819Z,0.30
2022-09-21T05:03:22.050Z,0.50
2022-09-21T05:05:51.598Z,0.17
2022-09-21T05:08:39.938Z,0.38
2022-09-21T05:11:09.932Z,0.22
2022-09-21T05:13:37.091Z,0.40
2022-09-21T05:16:04.528Z,0.73
2022-09-21T05:18:32.043Z,0.50
2022-09-21T05:21:00.876Z,0.10
2022-09-21T05:23:29.692Z,0.40
2022-09-21T05:25:58.420Z,0.20
2022-09-21T05:28:26.970Z,0.35
2022-09-21T05:31:26.404Z,0.20
2022-09-21T05:34:20.788Z,0.57
2022-09-21T05:36:52.740Z,0.28
2022-09-21T05:39:20.832Z,1.30
2022-09-21T05:41:48.284Z,0.57
2022-09-21T05:44:15.830Z,0.40
2022-09-21T05:47:12.756Z,0.40
2022-09-21T05:49:48.879Z,0.40
2022-09-21T05:52:43.675Z,0.30
2022-09-21T05:55:30.034Z,0.25
2022-09-21T05:58:10.386Z,0.40
2022-09-21T06:00:54.808Z,0.45
2022-09-21T06:03:30.709Z,0.60
2022-09-21T06:05:59.150Z,0.50
2022-09-21T06:08:26.950Z,0.20
2022-09-21T06:10:55.197Z,0.35
2022-09-21T06:13:22.361Z,0.52
2022-09-21T06:15:49.747Z,0.60
2022-09-21T06:18:18.169Z,0.35
2022-09-21T06:20:46.462Z,0.90
2022-09-21T06:23:15.047Z,0.68
2022-09-21T06:25:42.451Z,0.40
2022-09-21T06:28:12.092Z,0.25
2022-09-21T06:30:42.341Z,0.30
2022-09-21T06:33:09.868Z,0.10
2022-09-21T06:35:37.342Z,0.22
2022-09-21T06:38:07.563Z,0.15
2022-09-21T06:40:37.216Z,0.10
2022-09-21T06:43:05.536Z,0.30
2022-09-21T06:45:33.643Z,0.43
2022-09-21T06:48:01.008Z,0.20
2022-09-21T06:50:28.207Z,0.60
2022-09-21T06:52:55.696Z,0.20
2022-09-21T06:55:22.933Z,0.10
2022-09-21T06:57:51.725Z,0.20
2022-09-21T07:00:19.195Z,0.28
2022-09-21T07:02:46.786Z,0.25
2022-09-21T07:05:13.952Z,0.40
2022-09-21T07:07:41.506Z,0.10
2022-09-21T07:10:14.528Z,0.35
2022-09-21T07:12:43.785Z,0.40
2022-09-21T07:15:11.144Z,0.28
2022-09-21T07:17:39.650Z,0.45
2022-09-21T07:20:08.254Z,0.30
2022-09-21T07:22:36.346Z,0.40
2022-09-21T07:25:05.567Z,0.38
2022-09-21T07:27:33.977Z,0.47
2022-09-21T07:30:01.087Z,0.30
2022-09-21T07:32:28.404Z,0.35
2022-09-21T07:34:56.596Z,0.40
2022-09-21T07:37:24.761Z,0.60
2022-09-21T07:39:53.005Z,0.30
2022-09-21T07:42:22.887Z,0.30
2022-09-21T07:44:51.254Z,0.30
2022-09-21T07:47:19.108Z,0.30
2022-09-21T07:49:47.214Z,0.40
2022-09-21T07:52:15.542Z,0.20
2022-09-21T07:54:42.716Z,0.30
2022-09-21T07:57:28.499Z,0.30
2022-09-21T07:59:59.084Z,0.28
2022-09-21T08:02:26.628Z,0.20
2022-09-21T08:04:54.199Z,0.20
2022-09-21T08:07:21.541Z,0.20
2022-09-21T08:09:50.891Z,0.30
2022-09-21T08:12:19.338Z,0.30
2022-09-21T08:14:47.859Z,0.20
2022-09-21T08:17:15.276Z,0.38
2022-09-21T08:19:42.481Z,0.22
2022-09-21T08:22:09.807Z,0.10
2022-09-21T08:24:37.721Z,0.45
2022-09-21T08:27:05.271Z,0.30
2022-09-21T08:29:32.456Z,0.30
2022-09-21T08:31:59.937Z,0.32
2022-09-21T08:34:28.106Z,0.20
2022-09-21T08:36:55.950Z,0.20
2022-09-21T08:39:24.063Z,0.30
2022-09-21T08:42:00.315Z,0.20
2022-09-21T08:44:37.420Z,0.28
2022-09-21T08:47:17.426Z,0.22
2022-09-21T08:49:51.424Z,0.20
2022-09-21T08:52:21.811Z,0.35
2022-09-21T08:54:55.503Z,0.10
2022-09-21T08:57:29.327Z,0.20
2022-09-21T08:59:57.345Z,0.30
2022-09-21T09:02:46.068Z,0.25
2022-09-21T09:05:48.786Z,0.10
2022-09-21T09:08:20.413Z,0.20
2022-09-21T09:11:09.287Z,0.22
2022-09-21T09:14:19.708Z,0.30
2022-09-21T09:16:59.113Z,0.13
2022-09-21T09:19:47.500Z,0.15
2022-09-21T09:22:26.678Z,0.45
2022-09-21T09:24:59.265Z,0.20
2022-09-21T09:27:32.638Z,0.10
2022-09-21T09:30:15.159Z,0.30
2022-09-21T09:33:01.432Z,0.30
2022-09-21T09:35:33.264Z,0.13
2022-09-21T09:38:12.224Z,0.57
2022-09-21T09:41:04.159Z,0.10
2022-09-21T09:44:04.341Z,0.10
2022-09-21T09:46:56.233Z,0.30
2022-09-21T09:49:45.777Z,0.13
2022-09-21T09:52:15.213Z,0.13
2022-09-21T09:54:43.636Z,0.10
2022-09-21T09:57:11.319Z,0.17
2022-09-21T09:59:43.157Z,0.20
2022-09-21T10:02:24.912Z,0.30
2022-09-21T10:05:06.607Z,0.35
2022-09-21T10:07:42.762Z,0.25
2022-09-21T10:10:34.605Z,0.28
2022-09-21T10:13:16.051Z,0.40
2022-09-21T10:15:51.687Z,0.20
2022-09-21T10:18:33.167Z,0.32
2022-09-21T10:21:07.432Z,0.40
2022-09-21T10:23:37.337Z,0.40
2022-09-21T10:26:10.679Z,0.40
2022-09-21T10:28:55.624Z,0.65
2022-09-21T10:31:24.375Z,0.20
2022-09-21T10:34:07.137Z,0.40
2022-09-21T10:36:36.432Z,0.40
2022-09-21T10:39:17.663Z,0.20
2022-09-21T10:41:51.499Z,0.20
2022-09-21T10:44:21.112Z,0.35
2022-09-21T10:46:50.020Z,0.32
2022-09-21T10:49:28.712Z,0.40
2022-09-21T10:51:59.093Z,0.10
2022-09-21T10:54:33.303Z,0.20
2022-09-21T10:57:04.302Z,0.40
2022-09-21T10:59:33.975Z,0.35
2022-09-21T11:02:03.173Z,0.20
2022-09-21T11:04:46.318Z,0.25
2022-09-21T11:07:32.273Z,0.15
2022-09-21T11:10:21.196Z,0.20
2022-09-21T11:13:00.074Z,0.20
2022-09-21T11:15:51.889Z,0.30
2022-09-21T11:18:30.797Z,0.43
2022-09-21T11:21:05.814Z,0.30
2022-09-21T11:23:47.545Z,0.50
2022-09-21T11:26:38.145Z,0.35
2022-09-21T11:32:20.674Z,1.10
2022-09-21T11:35:16.049Z,0.28
2022-09-21T11:37:58.296Z,0.20
2022-09-21T11:40:46.777Z,0.47
2022-09-21T11:43:46.427Z,0.38
2022-09-21T11:46:38.625Z,0.50
2022-09-21T11:52:07.464Z,0.43
2022-09-21T11:54:52.981Z,1.15
2022-09-21T11:57:29.087Z,0.50
2022-09-21T12:00:19.367Z,0.25
2022-09-21T12:02:58.265Z,0.30
2022-09-21T12:05:25.578Z,0.43
2022-09-21T12:07:59.017Z,0.43
2022-09-21T12:10:32.263Z,0.50
2022-09-21T12:13:09.962Z,0.30
2022-09-21T12:15:57.841Z,0.50
2022-09-21T12:18:43.927Z,0.40
2022-09-21T12:21:21.108Z,0.20
2022-09-21T12:23:56.286Z,0.20
2022-09-21T12:26:29.920Z,0.30
2022-09-21T12:29:06.510Z,0.40
2022-09-21T12:31:47.499Z,0.20
2022-09-21T12:34:22.775Z,0.40
2022-09-21T12:37:18.801Z,1.70
2022-09-21T12:39:58.402Z,0.20
2022-09-21T12:42:35.286Z,0.17
2022-09-21T12:45:25.885Z,0.25
2022-09-21T12:48:04.486Z,0.20
2022-09-21T12:50:48.568Z,0.50
2022-09-21T12:53:21.115Z,0.20
2022-09-21T12:56:11.714Z,0.40
2022-09-21T12:58:59.688Z,0.30
2022-09-21T13:01:38.753Z,1.23
2022-09-21T13:04:31.612Z,0.55
2022-09-21T13:07:10.978Z,0.35
2022-09-21T13:09:42.280Z,3.33
2022-09-21T13:12:26.281Z,0.28
2022-09-21T13:15:01.645Z,0.32
2022-09-21T13:17:31.413Z,0.60
2022-09-21T13:20:22.077Z,0.20
2022-09-21T13:22:57.951Z,0.40
2022-09-21T13:25:28.313Z,0.13
2022-09-21T13:28:16.811Z,0.50
2022-09-21T13:30:50.307Z,0.20
2022-09-21T13:33:20.718Z,1.67
2022-09-21T13:35:51.047Z,0.85
2022-09-21T13:38:40.377Z,0.85
2022-09-21T13:41:19.932Z,0.30
2022-09-21T13:43:54.897Z,0.10
2022-09-21T13:46:37.490Z,0.32
2022-09-21T13:49:10.794Z,0.30
2022-09-21T13:52:13.130Z,1.63
2022-09-21T13:54:59.787Z,0.63
2022-09-21T13:57:38.399Z,0.32
2022-09-21T14:00:12.633Z,0.20
2022-09-21T14:02:57.260Z,0.43
2022-09-21T14:05:36.235Z,0.20
2022-09-21T14:08:07.797Z,0.30
2022-09-21T14:10:38.101Z,0.43
2022-09-21T14:13:23.351Z,0.50
2022-09-21T14:15:51.207Z,0.22
2022-09-21T14:18:21.839Z,0.45
2022-09-21T14:21:08.372Z,0.10
2022-09-21T14:23:39.691Z,0.10
2022-09-21T14:26:35.368Z,0.30
2022-09-21T14:29:15.935Z,0.20
2022-09-21T14:31:43.750Z,0.40
2022-09-21T14:34:23.254Z,0.20
2022-09-21T14:36:54.411Z,0.20
2022-09-21T14:39:44.720Z,0.20
2022-09-21T14:42:17.461Z,0.22
2022-09-21T14:44:50.007Z,0.60
2022-09-21T14:47:54.398Z,0.60
2022-09-21T14:50:39.180Z,0.45
2022-09-21T14:53:23.441Z,0.40
2022-09-21T14:56:25.086Z,0.45
2022-09-21T14:58:58.154Z,0.83
2022-09-21T15:01:37.917Z,0.40
2022-09-21T15:04:26.476Z,0.68
2022-09-21T15:07:37.916Z,0.43
2022-09-21T15:10:41.159Z,0.40
2022-09-21T15:13:19.779Z,0.30
2022-09-21T15:16:17.881Z,0.45
2022-09-21T15:18:47.255Z,0.20
2022-09-21T15:21:30.566Z,0.30
2022-09-21T15:23:59.234Z,0.75
2022-09-21T15:26:29.391Z,0.28
2022-09-21T15:29:15.687Z,0.63
2022-09-21T15:31:43.320Z,0.38
2022-09-21T15:34:13.099Z,0.20
2022-09-21T15:36:42.171Z,0.50
2022-09-21T15:39:22.715Z,0.35
2022-09-21T15:42:06.174Z,0.50
2022-09-21T15:44:34.353Z,0.32
2022-09-21T15:47:03.274Z,0.30
2022-09-21T15:49:31.073Z,0.52
2022-09-21T15:52:13.621Z,0.80
2022-09-21T15:54:49.111Z,0.40
2022-09-21T15:57:39.220Z,0.43
2022-09-21T16:00:31.362Z,0.52
2022-09-21T16:05:45.431Z,0.30
2022-09-21T16:08:42.192Z,0.30
2022-09-21T16:11:37.899Z,0.70
2022-09-21T16:14:32.732Z,0.60
2022-09-21T16:17:12.234Z,10.70
2022-09-21T16:19:45.125Z,9.38
2022-09-21T16:22:14.539Z,26.20
2022-09-21T16:24:52.038Z,49.45
2022-09-21T16:27:21.248Z,16.55
2022-09-21T16:29:50.296Z,7.97
2022-09-21T16:32:17.533Z,1.52
2022-09-21T16:34:48.863Z,1.50
2022-09-21T16:37:24.873Z,5.88
2022-09-21T16:39:53.019Z,2.13
2022-09-21T16:42:22.454Z,2.05
2022-09-21T16:44:50.506Z,1.35
2022-09-21T16:47:25.250Z,0.50
2022-09-21T16:49:57.910Z,0.60
2022-09-21T16:52:28.376Z,1.30
2022-09-21T16:54:56.746Z,0.60
2022-09-21T16:57:25.943Z,1.05
2022-09-21T16:59:53.516Z,0.90
2022-09-21T17:02:21.070Z,1.00
2022-09-21T17:04:48.368Z,1.27
2022-09-21T17:07:17.061Z,0.90
2022-09-21T17:09:50.754Z,0.75
2022-09-21T17:12:18.357Z,0.80
2022-09-21T17:14:47.290Z,0.60
2022-09-21T17:17:24.869Z,0.82
2022-09-21T17:19:53.950Z,0.63
2022-09-21T17:22:22.037Z,1.00
2022-09-21T17:24:52.354Z,0.77
2022-09-21T17:27:23.844Z,0.77
2022-09-21T17:29:51.277Z,0.80
2022-09-21T17:32:21.052Z,0.73
2022-09-21T17:35:22.621Z,0.57
2022-09-21T17:37:49.809Z,0.90
2022-09-21T17:40:17.747Z,0.85
2022-09-21T17:42:48.501Z,0.55
2022-09-21T17:45:27.849Z,0.93
2022-09-21T17:47:55.603Z,0.98
2022-09-21T17:50:27.672Z,0.80
2022-09-21T17:53:15.285Z,0.60
2022-09-21T17:55:57.129Z,0.90
2022-09-21T17:58:36.960Z,0.88
2022-09-21T18:01:04.451Z,0.90
2022-09-21T18:03:41.369Z,0.98
2022-09-21T18:06:09.791Z,0.80
2022-09-21T18:08:39.170Z,0.80
2022-09-21T18:11:12.789Z,0.88
2022-09-21T18:14:02.096Z,1.10
2022-09-21T18:16:34.213Z,0.85
2022-09-21T18:19:33.937Z,0.65
2022-09-21T18:22:22.541Z,0.60
2022-09-21T18:24:52.143Z,1.00
2022-09-21T18:27:20.134Z,1.08
2022-09-21T18:29:47.637Z,1.23
2022-09-21T18:32:24.153Z,1.20
2022-09-21T18:34:57.166Z,1.10
2022-09-21T18:38:00.481Z,1.20
2022-09-21T18:40:37.002Z,1.35
2022-09-21T18:43:22.857Z,1.13
2022-09-21T18:45:56.513Z,1.20
2022-09-21T18:48:40.280Z,1.25
2022-09-21T18:51:38.721Z,0.80
2022-09-21T18:54:08.439Z,1.17
2022-09-21T18:56:37.672Z,1.20
2022-09-21T18:59:07.223Z,0.93
2022-09-21T19:01:35.206Z,1.00
2022-09-21T19:04:02.860Z,1.35
2022-09-21T19:06:48.803Z,0.85
2022-09-21T19:09:43.306Z,0.88
2022-09-21T19:12:10.549Z,1.20
2022-09-21T19:14:41.362Z,1.48
2022-09-21T19:17:14.535Z,1.13
2022-09-21T19:20:12.510Z,1.30
2022-09-21T19:22:46.572Z,0.95
2022-09-21T19:25:28.451Z,1.00
2022-09-21T19:28:10.289Z,0.95
2022-09-21T19:30:38.996Z,0.52
2022-09-21T19:33:48.446Z,0.90
2022-09-21T19:36:10.275Z,1.33
2022-09-21T19:38:37.784Z,0.90
2022-09-21T19:41:17.643Z,1.02
2022-09-21T19:43:59.109Z,0.88
2022-09-21T19:47:03.403Z,0.90
2022-09-21T19:49:42.961Z,1.50
2022-09-21T19:52:13.451Z,0.90
2022-09-21T19:54:59.834Z,1.50
2022-09-21T19:57:45.942Z,1.45
2022-09-21T20:00:16.787Z,1.45
2022-09-21T20:03:15.431Z,1.40
2022-09-21T20:05:49.321Z,1.52
2022-09-21T20:08:51.847Z,1.60
2022-09-21T20:11:41.278Z,1.70
2022-09-21T20:14:24.232Z,1.50
2022-09-21T20:16:59.394Z,1.63
2022-09-21T20:19:44.089Z,1.75
2022-09-21T20:22:25.135Z,1.83
2022-09-21T20:24:59.276Z,1.50
2022-09-21T20:27:38.892Z,1.83
2022-09-21T20:30:10.183Z,1.70
2022-09-21T20:32:40.871Z,1.67
2022-09-21T20:35:17.747Z,1.40
2022-09-21T20:37:45.591Z,1.65
2022-09-21T20:40:13.854Z,1.58
2022-09-21T20:42:42.069Z,1.05
2022-09-21T20:45:11.300Z,1.45
2022-09-21T20:47:39.195Z,1.40
2022-09-21T20:50:11.699Z,1.48
2022-09-21T20:52:41.519Z,1.23
2022-09-21T20:55:13.591Z,0.95
2022-09-21T20:57:40.999Z,1.30
2022-09-21T21:00:11.053Z,1.00
2022-09-21T21:02:38.713Z,1.30
2022-09-21T21:05:08.010Z,1.10
2022-09-21T21:07:35.524Z,1.10
2022-09-21T21:10:03.799Z,1.00
2022-09-21T21:12:31.322Z,1.35
2022-09-21T21:14:59.391Z,0.82
2022-09-21T21:17:26.523Z,0.90
2022-09-21T21:19:54.013Z,0.93
2022-09-21T21:22:21.194Z,0.65
2022-09-21T21:24:48.654Z,0.85
2022-09-21T21:27:19.474Z,0.90
2022-09-21T21:29:50.254Z,0.80
2022-09-21T21:32:20.239Z,0.77
2022-09-21T21:34:47.575Z,1.02
2022-09-21T21:37:16.512Z,0.80
2022-09-21T21:39:44.193Z,0.82
2022-09-21T21:42:11.694Z,0.73
2022-09-21T21:44:39.252Z,0.65
2022-09-21T21:47:27.844Z,1.23
2022-09-21T21:49:54.257Z,0.73
2022-09-21T21:52:21.706Z,0.75
2022-09-21T21:54:50.098Z,0.80
2022-09-21T21:57:17.280Z,0.90
2022-09-21T21:59:44.632Z,0.98
2022-09-21T22:02:12.000Z,0.80
2022-09-21T22:04:39.264Z,0.80
2022-09-21T22:07:06.665Z,1.00
2022-09-21T22:09:33.901Z,1.33
2022-09-21T22:12:02.047Z,1.33
2022-09-21T22:14:30.693Z,3.33
2022-09-21T22:16:58.979Z,1.60
2022-09-21T22:19:26.337Z,1.60
2022-09-21T22:21:54.845Z,1.08
2022-09-21T22:24:22.587Z,1.33
2022-09-21T22:26:49.992Z,1.23
2022-09-21T22:29:17.558Z,1.10
2022-09-21T22:31:48.378Z,0.93
2022-09-21T22:34:16.181Z,1.43
2022-09-21T22:36:44.129Z,1.60
2022-09-21T22:39:12.312Z,1.08
2022-09-21T22:41:41.685Z,1.48
2022-09-21T22:44:10.246Z,1.13
2022-09-21T22:46:38.422Z,1.23
2022-09-21T22:49:05.862Z,1.17
2022-09-21T22:51:33.989Z,1.17
2022-09-21T22:54:01.802Z,1.05
2022-09-21T22:56:31.676Z,1.10
2022-09-21T22:59:00.967Z,1.58
2022-09-21T23:01:39.724Z,1.00
2022-09-21T23:04:12.422Z,1.20
2022-09-21T23:06:42.641Z,1.10
2022-09-21T23:09:15.860Z,1.83
2022-09-21T23:11:47.624Z,1.35
2022-09-21T23:14:16.588Z,0.80
2022-09-21T23:16:44.254Z,2.83
2022-09-21T23:19:15.890Z,1.60
2022-09-21T23:21:49.523Z,1.02
2022-09-21T23:24:17.695Z,0.75
2022-09-21T23:26:45.965Z,1.38
2022-09-21T23:29:15.243Z,1.60
2022-09-21T23:31:45.533Z,0.80
2022-09-21T23:34:14.287Z,1.07
2022-09-21T23:36:42.638Z,0.82
2022-09-21T23:39:12.197Z,1.20
2022-09-21T23:41:40.490Z,0.80
2022-09-21T23:44:07.744Z,0.88
2022-09-21T23:46:36.727Z,0.85
2022-09-21T23:49:04.401Z,1.20
2022-09-21T23:51:31.637Z,0.75
2022-09-21T23:53:59.556Z,1.00
2022-09-21T23:56:28.626Z,2.28
2022-09-21T23:58:56.224Z,1.05
